Philomont, Virginia
Current Conditions -  °F | °C
As of 12:55 PM on Sunday 21 Dec 2014 (Local Time) from KJYO Reporting Station
Overcast Overcast  
Wind Chill: 37°   Ceiling: 7000
Heat Index: 37°   Visibility: 10mi
Dew Point: 28°   Wind: 3mph
Humidity: 70%   Direction: 320°NW
Pressure: 30.32"   Gusts: NA
Location:  39.06°N, 77.74°W
Report Text: KJYO 211755Z AUTO 32003KT 10SM OVC070 03/M02 A3032 RMK AO2
Loading
Personal Weather Stations






























Interactive Weather Map New forecast layout! Learn more

10-Day Weather Forecast

Advertisements
Track Severe Weather on mobile